sensor_id;sensor_type;location;lat;lon;timestamp;P1;durP1;ratioP1;P2;durP2;ratioP2
38611;SDS011;24368;52.156;20.788;2023-09-19T00:04:49;11.90;;;10.80;;
38611;SDS011;24368;52.156;20.788;2023-09-19T00:09:52;11.10;;;10.10;;
38611;SDS011;24368;52.156;20.788;2023-09-19T00:14:59;11.30;;;10.20;;
38611;SDS011;24368;52.156;20.788;2023-09-19T00:20:02;11.70;;;10.50;;
38611;SDS011;24368;52.156;20.788;2023-09-19T00:25:14;11.50;;;10.50;;
38611;SDS011;24368;52.156;20.788;2023-09-19T00:30:19;12.60;;;11.40;;
38611;SDS011;24368;52.156;20.788;2023-09-19T00:39:23;12.40;;;11.30;;
38611;SDS011;24368;52.156;20.788;2023-09-19T00:44:27;12.60;;;11.30;;
38611;SDS011;24368;52.156;20.788;2023-09-19T00:49:29;12.20;;;11.00;;
38611;SDS011;24368;52.156;20.788;2023-09-19T00:54:35;11.60;;;10.50;;
38611;SDS011;24368;52.156;20.788;2023-09-19T01:03:54;12.60;;;11.40;;
38611;SDS011;24368;52.156;20.788;2023-09-19T01:08:56;13.00;;;11.70;;
38611;SDS011;24368;52.156;20.788;2023-09-19T01:43:53;12.50;;;11.40;;
38611;SDS011;24368;52.156;20.788;2023-09-19T01:49:01;12.60;;;11.20;;
38611;SDS011;24368;52.156;20.788;2023-09-19T01:54:24;11.10;;;9.80;;
38611;SDS011;24368;52.156;20.788;2023-09-19T01:59:43;12.70;;;11.20;;
38611;SDS011;24368;52.156;20.788;2023-09-19T02:04:58;11.60;;;10.60;;
38611;SDS011;24368;52.156;20.788;2023-09-19T02:10:09;11.40;;;10.50;;
38611;SDS011;24368;52.156;20.788;2023-09-19T02:15:18;12.20;;;11.10;;
38611;SDS011;24368;52.156;20.788;2023-09-19T02:20:29;11.80;;;10.80;;
38611;SDS011;24368;52.156;20.788;2023-09-19T02:25:55;11.80;;;10.80;;
38611;SDS011;24368;52.156;20.788;2023-09-19T02:39:56;12.30;;;11.20;;
38611;SDS011;24368;52.156;20.788;2023-09-19T02:45:10;12.10;;;10.80;;
38611;SDS011;24368;52.156;20.788;2023-09-19T02:57:20;11.00;;;10.00;;
38611;SDS011;24368;52.156;20.788;2023-09-19T03:02:22;12.70;;;11.60;;
38611;SDS011;24368;52.156;20.788;2023-09-19T03:11:14;12.90;;;11.80;;
38611;SDS011;24368;52.156;20.788;2023-09-19T03:25:23;13.60;;;12.30;;
38611;SDS011;24368;52.156;20.788;2023-09-19T03:39:42;13.30;;;12.10;;
38611;SDS011;24368;52.156;20.788;2023-09-19T03:45:02;12.10;;;11.00;;
38611;SDS011;24368;52.156;20.788;2023-09-19T04:04:27;12.70;;;11.60;;
38611;SDS011;24368;52.156;20.788;2023-09-19T04:10:16;12.30;;;11.20;;
38611;SDS011;24368;52.156;20.788;2023-09-19T04:15:38;11.50;;;10.50;;
38611;SDS011;24368;52.156;20.788;2023-09-19T04:43:04;11.80;;;10.70;;
38611;SDS011;24368;52.156;20.788;2023-09-19T04:48:13;13.10;;;11.70;;
38611;SDS011;24368;52.156;20.788;2023-09-19T04:53:17;12.60;;;11.50;;
38611;SDS011;24368;52.156;20.788;2023-09-19T05:03:27;11.00;;;9.90;;
38611;SDS011;24368;52.156;20.788;2023-09-19T05:20:45;12.10;;;11.10;;
38611;SDS011;24368;52.156;20.788;2023-09-19T05:25:47;12.40;;;11.00;;
38611;SDS011;24368;52.156;20.788;2023-09-19T05:30:50;11.20;;;10.10;;
38611;SDS011;24368;52.156;20.788;2023-09-19T05:35:53;12.10;;;10.80;;
38611;SDS011;24368;52.156;20.788;2023-09-19T05:40:55;16.20;;;11.20;;
38611;SDS011;24368;52.156;20.788;2023-09-19T05:45:59;17.10;;;11.90;;
38611;SDS011;24368;52.156;20.788;2023-09-19T05:51:02;12.30;;;11.20;;
38611;SDS011;24368;52.156;20.788;2023-09-19T05:56:04;12.20;;;11.10;;
38611;SDS011;24368;52.156;20.788;2023-09-19T06:01:12;11.40;;;10.40;;
38611;SDS011;24368;52.156;20.788;2023-09-19T06:53:27;11.00;;;9.90;;
38611;SDS011;24368;52.156;20.788;2023-09-19T07:16:08;13.90;;;12.50;;
38611;SDS011;24368;52.156;20.788;2023-09-19T07:41:07;13.70;;;12.60;;
38611;SDS011;24368;52.156;20.788;2023-09-19T07:46:20;14.30;;;12.90;;
38611;SDS011;24368;52.156;20.788;2023-09-19T07:51:27;13.90;;;12.50;;
38611;SDS011;24368;52.156;20.788;2023-09-19T08:05:57;15.00;;;13.00;;
38611;SDS011;24368;52.156;20.788;2023-09-19T08:11:08;13.20;;;11.80;;
38611;SDS011;24368;52.156;20.788;2023-09-19T08:16:17;12.30;;;11.10;;
38611;SDS011;24368;52.156;20.788;2023-09-19T08:21:21;14.00;;;12.60;;
38611;SDS011;24368;52.156;20.788;2023-09-19T08:26:25;19.20;;;17.30;;
38611;SDS011;24368;52.156;20.788;2023-09-19T08:31:28;16.10;;;14.40;;
38611;SDS011;24368;52.156;20.788;2023-09-19T08:36:31;18.30;;;15.90;;
38611;SDS011;24368;52.156;20.788;2023-09-19T08:41:33;16.00;;;14.40;;
38611;SDS011;24368;52.156;20.788;2023-09-19T08:46:36;14.30;;;13.00;;
38611;SDS011;24368;52.156;20.788;2023-09-19T09:01:07;11.50;;;10.30;;
38611;SDS011;24368;52.156;20.788;2023-09-19T09:06:10;11.60;;;10.30;;
38611;SDS011;24368;52.156;20.788;2023-09-19T09:11:13;13.70;;;10.00;;
38611;SDS011;24368;52.156;20.788;2023-09-19T09:26:41;12.60;;;9.70;;
38611;SDS011;24368;52.156;20.788;2023-09-19T09:31:48;6.60;;;5.90;;
38611;SDS011;24368;52.156;20.788;2023-09-19T09:36:50;6.10;;;5.50;;
38611;SDS011;24368;52.156;20.788;2023-09-19T09:41:54;6.70;;;6.10;;
38611;SDS011;24368;52.156;20.788;2023-09-19T09:46:57;6.70;;;6.00;;
38611;SDS011;24368;52.156;20.788;2023-09-19T10:01:46;9.00;;;8.20;;
38611;SDS011;24368;52.156;20.788;2023-09-19T10:06:53;7.00;;;5.90;;
38611;SDS011;24368;52.156;20.788;2023-09-19T10:12:29;8.60;;;6.50;;
38611;SDS011;24368;52.156;20.788;2023-09-19T10:17:27;6.50;;;6.00;;
38611;SDS011;24368;52.156;20.788;2023-09-19T10:22:33;6.00;;;5.50;;
38611;SDS011;24368;52.156;20.788;2023-09-19T10:27:37;6.70;;;6.20;;
38611;SDS011;24368;52.156;20.788;2023-09-19T10:32:43;5.00;;;4.60;;
38611;SDS011;24368;52.156;20.788;2023-09-19T10:47:55;4.20;;;3.80;;
38611;SDS011;24368;52.156;20.788;2023-09-19T10:53:21;4.70;;;4.20;;
38611;SDS011;24368;52.156;20.788;2023-09-19T10:58:35;3.90;;;3.50;;
38611;SDS011;24368;52.156;20.788;2023-09-19T11:03:41;4.40;;;3.50;;
38611;SDS011;24368;52.156;20.788;2023-09-19T11:27:58;4.60;;;3.90;;
38611;SDS011;24368;52.156;20.788;2023-09-19T11:33:16;5.40;;;4.50;;
38611;SDS011;24368;52.156;20.788;2023-09-19T11:38:56;4.80;;;4.30;;
38611;SDS011;24368;52.156;20.788;2023-09-19T11:43:45;4.80;;;4.30;;
38611;SDS011;24368;52.156;20.788;2023-09-19T11:48:52;8.00;;;4.30;;
38611;SDS011;24368;52.156;20.788;2023-09-19T11:53:55;5.30;;;4.80;;
38611;SDS011;24368;52.156;20.788;2023-09-19T11:59:03;5.70;;;5.10;;
38611;SDS011;24368;52.156;20.788;2023-09-19T12:04:06;5.90;;;5.00;;
38611;SDS011;24368;52.156;20.788;2023-09-19T12:09:13;6.20;;;4.80;;
38611;SDS011;24368;52.156;20.788;2023-09-19T12:14:21;5.40;;;4.80;;
38611;SDS011;24368;52.156;20.788;2023-09-19T12:19:24;5.40;;;4.90;;
38611;SDS011;24368;52.156;20.788;2023-09-19T12:24:40;7.30;;;5.10;;
38611;SDS011;24368;52.156;20.788;2023-09-19T12:29:48;10.00;;;9.00;;
38611;SDS011;24368;52.156;20.788;2023-09-19T12:34:51;5.90;;;5.30;;
38611;SDS011;24368;52.156;20.788;2023-09-19T12:40:02;8.80;;;7.90;;
38611;SDS011;24368;52.156;20.788;2023-09-19T12:45:19;6.40;;;5.10;;
38611;SDS011;24368;52.156;20.788;2023-09-19T12:50:22;5.40;;;4.40;;
38611;SDS011;24368;52.156;20.788;2023-09-19T13:04:22;5.60;;;4.50;;
38611;SDS011;24368;52.156;20.788;2023-09-19T13:09:34;9.90;;;8.00;;
38611;SDS011;24368;52.156;20.788;2023-09-19T13:14:36;6.60;;;5.30;;
38611;SDS011;24368;52.156;20.788;2023-09-19T13:19:44;8.30;;;6.80;;
38611;SDS011;24368;52.156;20.788;2023-09-19T13:24:58;7.90;;;6.40;;
38611;SDS011;24368;52.156;20.788;2023-09-19T13:30:00;8.60;;;6.90;;
38611;SDS011;24368;52.156;20.788;2023-09-19T13:35:03;8.20;;;7.30;;
38611;SDS011;24368;52.156;20.788;2023-09-19T13:46:56;8.10;;;7.30;;
38611;SDS011;24368;52.156;20.788;2023-09-19T13:51:58;7.90;;;7.30;;
38611;SDS011;24368;52.156;20.788;2023-09-19T13:57:12;8.00;;;7.30;;
38611;SDS011;24368;52.156;20.788;2023-09-19T14:02:32;8.00;;;7.20;;
38611;SDS011;24368;52.156;20.788;2023-09-19T14:07:34;7.20;;;6.50;;
38611;SDS011;24368;52.156;20.788;2023-09-19T14:12:47;8.00;;;7.20;;
38611;SDS011;24368;52.156;20.788;2023-09-19T14:54:45;4.70;;;4.40;;
38611;SDS011;24368;52.156;20.788;2023-09-19T14:59:47;5.90;;;5.00;;
38611;SDS011;24368;52.156;20.788;2023-09-19T15:04:48;4.10;;;3.80;;
38611;SDS011;24368;52.156;20.788;2023-09-19T15:09:51;6.50;;;5.20;;
38611;SDS011;24368;52.156;20.788;2023-09-19T15:14:52;5.30;;;4.80;;
38611;SDS011;24368;52.156;20.788;2023-09-19T15:19:54;6.70;;;4.30;;
38611;SDS011;24368;52.156;20.788;2023-09-19T15:29:57;4.40;;;3.90;;
38611;SDS011;24368;52.156;20.788;2023-09-19T15:35:06;6.20;;;4.40;;
38611;SDS011;24368;52.156;20.788;2023-09-19T15:40:15;6.30;;;4.70;;
38611;SDS011;24368;52.156;20.788;2023-09-19T15:45:17;4.70;;;3.70;;
38611;SDS011;24368;52.156;20.788;2023-09-19T15:50:20;6.20;;;4.20;;
38611;SDS011;24368;52.156;20.788;2023-09-19T15:55:23;4.10;;;3.70;;
38611;SDS011;24368;52.156;20.788;2023-09-19T16:00:25;4.70;;;4.10;;
38611;SDS011;24368;52.156;20.788;2023-09-19T16:05:36;4.60;;;3.60;;
38611;SDS011;24368;52.156;20.788;2023-09-19T16:10:38;5.30;;;3.80;;
38611;SDS011;24368;52.156;20.788;2023-09-19T16:15:43;5.10;;;4.30;;
38611;SDS011;24368;52.156;20.788;2023-09-19T16:20:48;4.50;;;4.00;;
38611;SDS011;24368;52.156;20.788;2023-09-19T16:25:59;3.50;;;3.20;;
38611;SDS011;24368;52.156;20.788;2023-09-19T16:31:14;3.50;;;3.20;;
38611;SDS011;24368;52.156;20.788;2023-09-19T16:36:17;4.20;;;3.10;;
38611;SDS011;24368;52.156;20.788;2023-09-19T16:48:06;2.30;;;2.10;;
38611;SDS011;24368;52.156;20.788;2023-09-19T16:57:58;2.30;;;2.10;;
38611;SDS011;24368;52.156;20.788;2023-09-19T17:02:59;4.40;;;2.20;;
38611;SDS011;24368;52.156;20.788;2023-09-19T17:08:01;4.20;;;2.10;;
38611;SDS011;24368;52.156;20.788;2023-09-19T17:13:03;3.80;;;2.20;;
38611;SDS011;24368;52.156;20.788;2023-09-19T17:18:12;3.00;;;2.50;;
38611;SDS011;24368;52.156;20.788;2023-09-19T17:23:13;3.10;;;2.50;;
38611;SDS011;24368;52.156;20.788;2023-09-19T17:34:57;4.10;;;3.10;;
38611;SDS011;24368;52.156;20.788;2023-09-19T17:39:58;2.90;;;2.10;;
38611;SDS011;24368;52.156;20.788;2023-09-19T17:51:33;2.70;;;2.20;;
38611;SDS011;24368;52.156;20.788;2023-09-19T18:02:01;4.40;;;3.00;;
38611;SDS011;24368;52.156;20.788;2023-09-19T18:07:02;2.70;;;2.40;;
38611;SDS011;24368;52.156;20.788;2023-09-19T18:12:03;2.60;;;2.30;;
38611;SDS011;24368;52.156;20.788;2023-09-19T18:17:06;6.40;;;5.50;;
38611;SDS011;24368;52.156;20.788;2023-09-19T18:40:23;4.30;;;3.80;;
38611;SDS011;24368;52.156;20.788;2023-09-19T18:46:51;4.10;;;3.40;;
38611;SDS011;24368;52.156;20.788;2023-09-19T18:52:06;3.40;;;3.10;;
38611;SDS011;24368;52.156;20.788;2023-09-19T18:57:13;3.50;;;3.00;;
38611;SDS011;24368;52.156;20.788;2023-09-19T19:02:15;3.70;;;3.20;;
38611;SDS011;24368;52.156;20.788;2023-09-19T19:07:24;4.70;;;3.40;;
38611;SDS011;24368;52.156;20.788;2023-09-19T19:12:32;4.30;;;3.50;;
38611;SDS011;24368;52.156;20.788;2023-09-19T19:17:33;6.60;;;3.50;;
38611;SDS011;24368;52.156;20.788;2023-09-19T19:22:35;3.90;;;3.30;;
38611;SDS011;24368;52.156;20.788;2023-09-19T19:27:56;6.70;;;3.50;;
38611;SDS011;24368;52.156;20.788;2023-09-19T19:33:07;3.90;;;3.10;;
38611;SDS011;24368;52.156;20.788;2023-09-19T19:38:18;5.70;;;3.70;;
38611;SDS011;24368;52.156;20.788;2023-09-19T19:43:38;6.40;;;4.30;;
38611;SDS011;24368;52.156;20.788;2023-09-19T19:48:51;5.80;;;4.30;;
38611;SDS011;24368;52.156;20.788;2023-09-19T19:54:20;4.60;;;3.90;;
38611;SDS011;24368;52.156;20.788;2023-09-19T19:59:35;4.60;;;4.20;;
38611;SDS011;24368;52.156;20.788;2023-09-19T20:04:50;6.50;;;4.20;;
38611;SDS011;24368;52.156;20.788;2023-09-19T20:09:55;4.30;;;3.90;;
38611;SDS011;24368;52.156;20.788;2023-09-19T20:14:56;5.70;;;3.90;;
38611;SDS011;24368;52.156;20.788;2023-09-19T20:19:58;4.80;;;4.00;;
38611;SDS011;24368;52.156;20.788;2023-09-19T20:25:00;5.30;;;3.50;;
38611;SDS011;24368;52.156;20.788;2023-09-19T20:30:07;4.90;;;3.80;;
38611;SDS011;24368;52.156;20.788;2023-09-19T20:35:10;5.10;;;3.30;;
38611;SDS011;24368;52.156;20.788;2023-09-19T20:40:15;6.10;;;3.80;;
38611;SDS011;24368;52.156;20.788;2023-09-19T20:45:21;4.20;;;3.40;;
38611;SDS011;24368;52.156;20.788;2023-09-19T20:56:49;3.90;;;3.30;;
38611;SDS011;24368;52.156;20.788;2023-09-19T21:02:12;4.60;;;3.60;;
38611;SDS011;24368;52.156;20.788;2023-09-19T21:07:21;5.00;;;3.60;;
38611;SDS011;24368;52.156;20.788;2023-09-19T21:12:24;5.90;;;4.00;;
38611;SDS011;24368;52.156;20.788;2023-09-19T21:17:41;5.40;;;3.50;;
38611;SDS011;24368;52.156;20.788;2023-09-19T21:22:43;3.90;;;3.20;;
38611;SDS011;24368;52.156;20.788;2023-09-19T21:37:02;5.80;;;3.40;;
38611;SDS011;24368;52.156;20.788;2023-09-19T21:42:04;4.70;;;3.30;;
38611;SDS011;24368;52.156;20.788;2023-09-19T21:47:06;7.40;;;3.50;;
38611;SDS011;24368;52.156;20.788;2023-09-19T21:52:08;4.40;;;3.30;;
38611;SDS011;24368;52.156;20.788;2023-09-19T21:57:10;6.30;;;3.70;;
38611;SDS011;24368;52.156;20.788;2023-09-19T22:02:13;4.50;;;4.10;;
38611;SDS011;24368;52.156;20.788;2023-09-19T22:07:15;4.00;;;3.50;;
38611;SDS011;24368;52.156;20.788;2023-09-19T22:12:17;4.10;;;3.70;;
38611;SDS011;24368;52.156;20.788;2023-09-19T22:17:20;4.60;;;3.50;;
38611;SDS011;24368;52.156;20.788;2023-09-19T22:22:23;4.20;;;3.40;;
38611;SDS011;24368;52.156;20.788;2023-09-19T22:27:26;4.00;;;3.60;;
38611;SDS011;24368;52.156;20.788;2023-09-19T22:32:28;3.60;;;2.70;;
38611;SDS011;24368;52.156;20.788;2023-09-19T22:37:30;3.00;;;2.80;;
38611;SDS011;24368;52.156;20.788;2023-09-19T22:42:32;4.80;;;4.30;;
38611;SDS011;24368;52.156;20.788;2023-09-19T22:47:34;4.00;;;3.50;;
38611;SDS011;24368;52.156;20.788;2023-09-19T22:52:36;3.20;;;2.80;;
38611;SDS011;24368;52.156;20.788;2023-09-19T22:57:39;5.20;;;3.00;;
38611;SDS011;24368;52.156;20.788;2023-09-19T23:02:40;2.70;;;2.50;;
38611;SDS011;24368;52.156;20.788;2023-09-19T23:07:43;2.90;;;2.30;;
38611;SDS011;24368;52.156;20.788;2023-09-19T23:12:51;3.60;;;3.00;;
38611;SDS011;24368;52.156;20.788;2023-09-19T23:17:56;3.80;;;3.20;;
38611;SDS011;24368;52.156;20.788;2023-09-19T23:23:00;3.30;;;2.80;;
38611;SDS011;24368;52.156;20.788;2023-09-19T23:28:02;4.30;;;2.90;;
38611;SDS011;24368;52.156;20.788;2023-09-19T23:33:05;4.20;;;3.50;;
38611;SDS011;24368;52.156;20.788;2023-09-19T23:38:07;4.90;;;3.30;;
38611;SDS011;24368;52.156;20.788;2023-09-19T23:43:09;3.90;;;3.10;;
38611;SDS011;24368;52.156;20.788;2023-09-19T23:48:15;4.10;;;3.60;;
38611;SDS011;24368;52.156;20.788;2023-09-19T23:53:18;4.60;;;2.80;;
38611;SDS011;24368;52.156;20.788;2023-09-19T23:58:20;3.30;;;3.00;;
